createdAt,value
2018-03-14T00:02:08.743Z,5.40
2018-03-14T00:04:37.497Z,5.40
2018-03-14T00:07:05.262Z,5.40
2018-03-14T00:09:32.930Z,5.50
2018-03-14T00:12:00.564Z,5.50
2018-03-14T00:14:28.917Z,5.50
2018-03-14T00:16:57.334Z,5.50
2018-03-14T00:19:24.997Z,5.50
2018-03-14T00:21:53.346Z,5.70
2018-03-14T00:24:20.956Z,5.70
2018-03-14T00:26:48.542Z,5.70
2018-03-14T00:29:16.137Z,5.80
2018-03-14T00:31:44.506Z,5.80
2018-03-14T00:34:12.103Z,5.80
2018-03-14T00:36:39.721Z,5.80
2018-03-14T00:39:07.322Z,5.80
2018-03-14T00:41:34.955Z,5.80
2018-03-14T00:44:03.303Z,5.90
2018-03-14T00:46:31.732Z,5.90
2018-03-14T00:48:59.330Z,5.90
2018-03-14T00:51:26.953Z,5.90
2018-03-14T00:53:54.591Z,6.00
2018-03-14T00:56:22.176Z,6.00
2018-03-14T00:58:50.558Z,6.00
2018-03-14T01:01:18.188Z,6.00
2018-03-14T01:03:45.810Z,6.00
2018-03-14T01:06:13.386Z,6.00
2018-03-14T01:08:41.008Z,5.90
2018-03-14T01:11:09.376Z,5.90
2018-03-14T01:13:37.003Z,5.90
2018-03-14T01:16:04.933Z,6.00
2018-03-14T01:18:33.320Z,6.00
2018-03-14T01:21:00.926Z,6.00
2018-03-14T01:23:28.794Z,6.10
2018-03-14T01:25:56.374Z,6.10
2018-03-14T01:28:23.959Z,6.10
2018-03-14T01:30:53.085Z,6.20
2018-03-14T01:33:20.905Z,6.20
2018-03-14T01:35:48.474Z,6.30
2018-03-14T01:38:16.099Z,6.30
2018-03-14T01:40:43.691Z,6.40
2018-03-14T01:43:11.320Z,6.40
2018-03-14T01:45:39.110Z,6.40
2018-03-14T01:48:06.719Z,6.40
2018-03-14T01:50:34.327Z,6.40
2018-03-14T01:53:13.735Z,6.50
2018-03-14T01:55:43.145Z,6.50
2018-03-14T01:58:11.626Z,6.50
2018-03-14T02:00:39.242Z,6.50
2018-03-14T02:03:06.823Z,6.50
2018-03-14T02:05:34.469Z,6.50
2018-03-14T02:08:02.048Z,6.50
2018-03-14T02:10:29.667Z,6.50
2018-03-14T02:12:57.279Z,6.50
2018-03-14T02:15:24.873Z,6.40
2018-03-14T02:17:53.255Z,6.40
2018-03-14T02:20:21.412Z,6.40
2018-03-14T02:22:49.767Z,6.40
2018-03-14T02:25:17.347Z,6.40
2018-03-14T02:27:45.952Z,6.30
2018-03-14T02:30:14.394Z,6.20
2018-03-14T02:32:42.030Z,6.20
2018-03-14T02:35:09.661Z,6.30
2018-03-14T02:37:37.262Z,6.20
2018-03-14T02:40:04.852Z,6.20
2018-03-14T02:42:32.463Z,6.20
2018-03-14T02:45:00.802Z,6.00
2018-03-14T02:47:28.354Z,6.00
2018-03-14T02:49:55.950Z,6.00
2018-03-14T02:52:23.593Z,5.90
2018-03-14T02:54:51.175Z,5.90
2018-03-14T02:57:18.730Z,5.80
2018-03-14T02:59:46.308Z,5.60
2018-03-14T03:02:13.910Z,5.60
2018-03-14T03:04:41.469Z,5.50
2018-03-14T03:07:09.060Z,5.50
2018-03-14T03:09:37.099Z,5.40
2018-03-14T03:12:04.711Z,5.40
2018-03-14T03:14:32.298Z,5.50
2018-03-14T03:17:00.213Z,5.60
2018-03-14T03:19:27.827Z,5.70
2018-03-14T03:21:55.403Z,5.70
2018-03-14T03:24:22.994Z,5.70
2018-03-14T03:26:50.577Z,5.70
2018-03-14T03:29:18.147Z,5.70
2018-03-14T03:31:45.803Z,5.60
2018-03-14T03:34:13.812Z,5.60
2018-03-14T03:36:41.386Z,5.70
2018-03-14T03:39:08.959Z,5.80
2018-03-14T03:41:37.827Z,5.90
2018-03-14T03:44:05.398Z,5.90
2018-03-14T03:46:34.988Z,6.10
2018-03-14T03:49:03.539Z,6.10
2018-03-14T03:51:31.126Z,6.20
2018-03-14T03:53:58.809Z,6.30
2018-03-14T03:56:26.403Z,6.30
2018-03-14T03:58:55.060Z,6.30
2018-03-14T04:01:22.615Z,6.30
2018-03-14T04:03:50.171Z,6.30
2018-03-14T04:06:17.755Z,6.40
2018-03-14T04:08:45.318Z,6.40
2018-03-14T04:11:14.010Z,6.40
2018-03-14T04:13:41.564Z,6.40
2018-03-14T04:16:09.132Z,6.40
2018-03-14T04:18:36.718Z,6.40
2018-03-14T04:21:04.271Z,6.40
2018-03-14T04:23:32.625Z,6.40
2018-03-14T04:26:00.178Z,6.40
2018-03-14T04:28:27.738Z,6.40
2018-03-14T04:30:55.339Z,6.40
2018-03-14T04:33:24.175Z,6.30
2018-03-14T04:35:52.186Z,6.30
2018-03-14T04:38:19.770Z,6.30
2018-03-14T04:40:47.386Z,6.20
2018-03-14T04:43:15.313Z,6.10
2018-03-14T04:45:43.651Z,6.10
2018-03-14T04:48:11.208Z,6.10
2018-03-14T04:50:38.822Z,6.00
2018-03-14T04:53:06.518Z,6.10
2018-03-14T04:55:34.071Z,6.10
2018-03-14T04:58:03.760Z,6.20
2018-03-14T05:00:31.346Z,6.10
2018-03-14T05:02:58.909Z,6.10
2018-03-14T05:05:26.500Z,6.20
2018-03-14T05:07:54.090Z,6.20
2018-03-14T05:10:21.714Z,6.30
2018-03-14T05:12:49.291Z,6.40
2018-03-14T05:15:16.842Z,6.40
2018-03-14T05:17:44.436Z,6.40
2018-03-14T05:20:11.991Z,6.50
2018-03-14T05:22:41.058Z,6.50
2018-03-14T05:25:08.639Z,6.60
2018-03-14T05:27:36.202Z,6.60
2018-03-14T05:30:04.458Z,6.70
2018-03-14T05:32:32.071Z,6.70
2018-03-14T05:35:00.420Z,6.80
2018-03-14T05:37:28.015Z,6.80
2018-03-14T05:39:55.884Z,6.90
2018-03-14T05:42:24.229Z,7.10
2018-03-14T05:44:51.787Z,7.10
2018-03-14T05:47:19.431Z,7.20
2018-03-14T05:49:46.990Z,7.20
2018-03-14T05:52:14.567Z,7.20
2018-03-14T05:54:42.167Z,7.30
2018-03-14T05:57:09.724Z,7.30
2018-03-14T05:59:37.562Z,7.30
2018-03-14T06:02:05.119Z,7.30
2018-03-14T06:04:32.726Z,7.30
2018-03-14T06:07:01.844Z,7.40
2018-03-14T06:09:29.431Z,7.40
2018-03-14T06:11:57.672Z,7.40
2018-03-14T06:14:25.254Z,7.40
2018-03-14T06:16:52.839Z,7.40
2018-03-14T06:19:20.651Z,7.40
2018-03-14T06:21:48.218Z,7.40
2018-03-14T06:24:15.814Z,7.40
2018-03-14T06:26:43.422Z,7.50
2018-03-14T06:29:11.055Z,7.50
2018-03-14T06:31:38.634Z,7.50
2018-03-14T06:34:06.372Z,7.50
2018-03-14T06:36:33.939Z,7.50
2018-03-14T06:39:01.498Z,7.50
2018-03-14T06:41:30.183Z,7.60
2018-03-14T06:43:57.752Z,7.60
2018-03-14T06:46:25.327Z,7.60
2018-03-14T06:48:53.660Z,7.70
2018-03-14T06:51:21.223Z,7.70
2018-03-14T06:53:48.787Z,7.80
2018-03-14T06:56:16.375Z,7.80
2018-03-14T06:58:55.709Z,7.80
2018-03-14T07:01:37.363Z,8.00
2018-03-14T07:04:16.732Z,7.90
2018-03-14T07:06:44.347Z,8.00
2018-03-14T07:09:12.929Z,8.00
2018-03-14T07:11:40.641Z,7.90
2018-03-14T07:14:08.896Z,7.90
2018-03-14T07:16:36.866Z,7.90
2018-03-14T07:19:05.257Z,8.00
2018-03-14T07:21:32.904Z,7.90
2018-03-14T07:24:00.498Z,8.00
2018-03-14T07:26:28.105Z,8.00
2018-03-14T07:28:55.694Z,8.00
2018-03-14T07:31:23.295Z,8.10
2018-03-14T07:33:51.118Z,8.20
2018-03-14T07:36:18.686Z,8.20
2018-03-14T07:38:46.275Z,8.30
2018-03-14T07:41:13.847Z,8.30
2018-03-14T07:43:41.449Z,8.30
2018-03-14T07:46:09.562Z,8.40
2018-03-14T07:48:37.677Z,8.50
2018-03-14T07:51:05.278Z,8.50
2018-03-14T07:53:32.862Z,8.50
2018-03-14T07:56:04.951Z,8.60
2018-03-14T07:58:34.055Z,8.70
2018-03-14T08:01:01.643Z,8.70
2018-03-14T08:03:29.333Z,8.70
2018-03-14T08:05:56.916Z,8.70
2018-03-14T08:08:24.798Z,8.70
2018-03-14T08:10:52.378Z,8.80
2018-03-14T08:13:19.964Z,8.90
2018-03-14T08:15:48.113Z,8.90
2018-03-14T08:18:15.675Z,9.00
2018-03-14T08:20:43.233Z,9.00
2018-03-14T08:23:10.841Z,9.10
2018-03-14T08:25:38.435Z,9.10
2018-03-14T08:28:06.008Z,9.10
2018-03-14T08:30:33.605Z,9.20
2018-03-14T08:33:01.182Z,9.20
2018-03-14T08:35:28.803Z,9.20
2018-03-14T08:37:56.360Z,9.20
2018-03-14T08:40:24.490Z,9.30
2018-03-14T08:42:52.052Z,9.20
2018-03-14T08:45:19.610Z,9.20
2018-03-14T08:47:47.217Z,9.20
2018-03-14T08:50:14.830Z,9.30
2018-03-14T08:52:42.431Z,9.30
2018-03-14T08:55:10.122Z,9.30
2018-03-14T08:57:38.104Z,9.40
2018-03-14T09:00:06.489Z,9.40
2018-03-14T09:02:34.079Z,9.40
2018-03-14T09:05:01.707Z,9.40
2018-03-14T09:07:29.307Z,9.40
2018-03-14T09:09:56.868Z,9.40
2018-03-14T09:12:24.459Z,9.50
2018-03-14T09:14:52.208Z,9.60
2018-03-14T09:17:20.299Z,9.60
2018-03-14T09:19:47.854Z,9.80
2018-03-14T09:22:15.414Z,9.90
2018-03-14T09:24:43.051Z,9.90
2018-03-14T09:27:10.623Z,10.00
2018-03-14T09:29:39.070Z,9.90
2018-03-14T09:32:06.642Z,10.00
2018-03-14T09:34:34.202Z,10.10
2018-03-14T09:37:04.419Z,10.20
2018-03-14T09:39:31.997Z,10.20
2018-03-14T09:42:00.335Z,10.30
2018-03-14T09:44:27.918Z,10.30
2018-03-14T09:46:55.526Z,10.30
2018-03-14T09:49:23.121Z,10.30
2018-03-14T09:51:50.715Z,10.40
2018-03-14T09:54:18.336Z,10.40
2018-03-14T09:56:45.895Z,10.40
2018-03-14T09:59:13.475Z,10.30
2018-03-14T10:01:41.074Z,10.40
2018-03-14T10:04:08.806Z,10.40
2018-03-14T10:06:36.407Z,10.40
2018-03-14T10:09:04.046Z,10.50
2018-03-14T10:11:31.650Z,10.50
2018-03-14T10:13:59.214Z,10.50
2018-03-14T10:16:27.870Z,10.40
2018-03-14T10:18:55.447Z,10.40
2018-03-14T10:21:23.022Z,10.40
2018-03-14T10:23:51.405Z,10.40
2018-03-14T10:26:19.361Z,10.30
2018-03-14T10:28:46.939Z,10.40
2018-03-14T10:31:15.271Z,10.40
2018-03-14T10:33:43.079Z,10.40
2018-03-14T10:36:11.422Z,10.40
2018-03-14T10:38:38.987Z,10.40
2018-03-14T10:41:06.594Z,10.30
2018-03-14T10:43:34.918Z,10.40
2018-03-14T10:46:02.546Z,10.40
2018-03-14T10:48:30.140Z,10.30
2018-03-14T10:50:57.718Z,10.30
2018-03-14T10:53:25.962Z,10.40
2018-03-14T10:55:53.536Z,10.40
2018-03-14T10:58:21.145Z,10.50
2018-03-14T11:00:55.585Z,10.60
2018-03-14T11:03:29.780Z,10.70
2018-03-14T11:05:57.434Z,10.70
2018-03-14T11:08:25.002Z,10.60
2018-03-14T11:10:53.652Z,11.00
2018-03-14T11:13:21.357Z,11.00
2018-03-14T11:15:48.918Z,11.00
2018-03-14T11:18:16.914Z,11.00
2018-03-14T11:20:45.252Z,11.00
2018-03-14T11:23:12.814Z,11.00
2018-03-14T11:25:40.435Z,11.10
2018-03-14T11:28:08.788Z,11.20
2018-03-14T11:30:36.398Z,11.20
2018-03-14T11:33:04.011Z,11.20
2018-03-14T11:35:31.565Z,11.30
2018-03-14T11:37:59.163Z,11.40
2018-03-14T11:40:27.491Z,11.60
2018-03-14T11:42:55.074Z,11.50
2018-03-14T11:45:22.655Z,11.50
2018-03-14T11:47:50.497Z,11.50
2018-03-14T11:50:18.076Z,11.50
2018-03-14T11:52:45.646Z,11.40
2018-03-14T11:55:14.232Z,11.40
2018-03-14T11:57:41.803Z,11.40
2018-03-14T12:00:10.148Z,11.30
2018-03-14T12:02:37.786Z,11.30
2018-03-14T12:05:05.386Z,11.40
2018-03-14T12:07:32.946Z,11.50
2018-03-14T12:10:00.542Z,11.50
2018-03-14T12:12:28.879Z,11.50
2018-03-14T12:14:56.472Z,11.40
2018-03-14T12:17:25.569Z,11.60
2018-03-14T12:19:53.439Z,11.60
2018-03-14T12:22:26.592Z,11.60
2018-03-14T12:24:54.174Z,11.60
2018-03-14T12:27:21.740Z,11.60
2018-03-14T12:29:49.302Z,11.70
2018-03-14T12:32:16.955Z,11.70
2018-03-14T12:34:45.614Z,11.80
2018-03-14T12:37:13.214Z,11.80
2018-03-14T12:39:40.786Z,11.80
2018-03-14T12:42:08.984Z,11.90
2018-03-14T12:44:37.319Z,12.10
2018-03-14T12:47:04.879Z,12.10
2018-03-14T12:49:32.462Z,12.10
2018-03-14T12:52:00.062Z,12.20
2018-03-14T12:54:28.422Z,12.40
2018-03-14T12:56:56.043Z,12.40
2018-03-14T12:59:23.605Z,12.50
2018-03-14T13:01:51.168Z,12.50
2018-03-14T13:04:18.874Z,12.60
2018-03-14T13:06:46.476Z,12.80
2018-03-14T13:09:14.071Z,13.00
2018-03-14T13:11:41.656Z,13.00
2018-03-14T13:14:09.986Z,13.10
2018-03-14T13:16:37.607Z,13.10
2018-03-14T13:19:05.232Z,13.10
2018-03-14T13:21:32.862Z,12.80
2018-03-14T13:24:00.436Z,13.00
2018-03-14T13:26:28.676Z,13.00
2018-03-14T13:28:56.298Z,13.00
2018-03-14T13:31:23.884Z,12.90
2018-03-14T13:33:52.082Z,12.90
2018-03-14T13:36:19.650Z,12.80
2018-03-14T13:38:47.219Z,12.80
2018-03-14T13:41:14.803Z,12.70
2018-03-14T13:43:42.362Z,12.70
2018-03-14T13:46:10.305Z,12.70
2018-03-14T13:48:38.674Z,12.60
2018-03-14T13:51:06.334Z,12.60
2018-03-14T13:53:34.868Z,12.50
2018-03-14T13:56:02.976Z,12.50
2018-03-14T13:58:30.563Z,12.50
2018-03-14T14:00:58.132Z,12.50
2018-03-14T14:03:25.745Z,12.70
2018-03-14T14:05:53.751Z,12.70
2018-03-14T14:08:21.364Z,12.70
2018-03-14T14:10:48.934Z,12.80
2018-03-14T14:13:16.769Z,12.80
2018-03-14T14:15:44.392Z,12.90
2018-03-14T14:18:11.993Z,13.00
2018-03-14T14:20:40.274Z,12.90
2018-03-14T14:23:07.850Z,12.90
2018-03-14T14:25:35.414Z,13.10
2018-03-14T14:28:04.288Z,13.20
2018-03-14T14:30:31.908Z,13.20
2018-03-14T14:33:01.394Z,13.20
2018-03-14T14:35:28.982Z,13.10
2018-03-14T14:37:57.355Z,13.20
2018-03-14T14:40:24.934Z,13.30
2018-03-14T14:42:52.502Z,13.30
2018-03-14T14:45:20.095Z,13.10
2018-03-14T14:47:47.667Z,13.00
2018-03-14T14:50:16.675Z,13.10
2018-03-14T14:52:44.982Z,13.20
2018-03-14T14:55:12.553Z,13.10
2018-03-14T14:57:40.191Z,13.30
2018-03-14T15:00:07.819Z,13.30
2018-03-14T15:02:35.443Z,13.20
2018-03-14T15:05:03.212Z,13.20
2018-03-14T15:07:30.780Z,13.20
2018-03-14T15:09:59.351Z,13.10
2018-03-14T15:12:26.957Z,13.20
2018-03-14T15:14:54.544Z,13.10
2018-03-14T15:17:22.147Z,13.20
2018-03-14T15:19:50.827Z,13.20
2018-03-14T15:22:18.426Z,13.30
2018-03-14T15:24:46.019Z,13.20
2018-03-14T15:27:13.603Z,12.90
2018-03-14T15:29:41.171Z,12.80
2018-03-14T15:32:08.731Z,12.80
2018-03-14T15:34:36.330Z,12.80
2018-03-14T15:37:04.662Z,12.70
2018-03-14T15:39:33.043Z,12.50
2018-03-14T15:42:00.886Z,12.50
2018-03-14T15:44:28.495Z,12.50
2018-03-14T15:46:56.481Z,12.50
2018-03-14T15:49:24.620Z,12.50
2018-03-14T15:51:53.019Z,12.60
2018-03-14T15:54:20.627Z,12.60
2018-03-14T15:56:48.229Z,12.50
2018-03-14T15:59:16.652Z,12.40
2018-03-14T16:01:44.690Z,12.40
2018-03-14T16:04:12.279Z,12.30
2018-03-14T16:06:39.906Z,12.30
2018-03-14T16:09:07.606Z,12.30
2018-03-14T16:11:35.186Z,12.30
2018-03-14T16:14:02.801Z,12.40
2018-03-14T16:16:31.337Z,12.40
2018-03-14T16:18:58.911Z,12.40
2018-03-14T16:21:26.482Z,12.30
2018-03-14T16:23:54.090Z,12.30
2018-03-14T16:26:21.707Z,12.30
2018-03-14T16:28:49.345Z,12.30
2018-03-14T16:31:16.924Z,12.30
2018-03-14T16:33:44.839Z,12.30
2018-03-14T16:36:13.879Z,12.30
2018-03-14T16:38:42.330Z,12.30
2018-03-14T16:41:10.507Z,12.30
2018-03-14T16:43:38.147Z,12.30
2018-03-14T16:46:05.751Z,12.30
2018-03-14T16:48:33.323Z,12.30
2018-03-14T16:51:00.977Z,12.30
2018-03-14T16:53:28.937Z,12.20
2018-03-14T16:55:56.519Z,12.20
2018-03-14T16:58:24.143Z,12.10
2018-03-14T17:00:52.501Z,12.10
2018-03-14T17:03:20.096Z,12.10
2018-03-14T17:05:48.949Z,12.00
2018-03-14T17:08:16.532Z,11.90
2018-03-14T17:10:44.481Z,11.90
2018-03-14T17:13:12.186Z,11.80
2018-03-14T17:15:39.834Z,11.70
2018-03-14T17:18:07.358Z,11.70
2018-03-14T17:20:34.954Z,11.60
2018-03-14T17:23:04.271Z,11.50
2018-03-14T17:25:31.871Z,11.50
2018-03-14T17:27:59.444Z,11.40
2018-03-14T17:30:27.470Z,11.30
2018-03-14T17:32:55.096Z,11.30
2018-03-14T17:35:23.298Z,11.20
2018-03-14T17:37:52.390Z,11.10
2018-03-14T17:40:20.001Z,11.10
2018-03-14T17:42:48.666Z,11.10
2018-03-14T17:45:16.842Z,11.00
2018-03-14T17:47:45.205Z,10.90
2018-03-14T17:50:13.332Z,10.90
2018-03-14T17:52:40.968Z,10.90
2018-03-14T17:55:08.573Z,10.80
2018-03-14T17:57:36.578Z,10.80
2018-03-14T18:00:04.407Z,10.70
2018-03-14T18:02:32.006Z,10.70
2018-03-14T18:04:59.578Z,10.70
2018-03-14T18:07:28.912Z,10.60
2018-03-14T18:09:56.496Z,10.60
2018-03-14T18:12:24.156Z,10.60
2018-03-14T18:14:51.800Z,10.60
2018-03-14T18:17:20.752Z,10.50
2018-03-14T18:19:48.722Z,10.60
2018-03-14T18:22:16.407Z,10.50
2018-03-14T18:24:44.809Z,10.40
2018-03-14T18:27:12.418Z,10.40
2018-03-14T18:29:40.508Z,10.30
2018-03-14T18:32:09.059Z,10.50
2018-03-14T18:34:36.655Z,10.30
2018-03-14T18:37:05.060Z,10.30
2018-03-14T18:39:33.440Z,10.30
2018-03-14T18:42:01.796Z,10.30
2018-03-14T18:44:29.375Z,10.30
2018-03-14T18:46:57.757Z,10.40
2018-03-14T18:49:25.340Z,10.40
2018-03-14T18:51:53.993Z,10.40
2018-03-14T18:54:21.599Z,10.40
2018-03-14T18:56:49.481Z,10.40
2018-03-14T18:59:17.732Z,10.40
2018-03-14T19:01:45.316Z,10.50
2018-03-14T19:04:12.933Z,10.50
2018-03-14T19:06:41.032Z,10.50
2018-03-14T19:09:09.380Z,10.60
2018-03-14T19:11:36.976Z,10.50
2018-03-14T19:14:05.682Z,10.60
2018-03-14T19:16:33.287Z,10.50
2018-03-14T19:19:00.863Z,10.50
2018-03-14T19:21:28.480Z,10.60
2018-03-14T19:23:56.106Z,10.60
2018-03-14T19:26:24.447Z,10.60
2018-03-14T19:28:52.036Z,10.70
2018-03-14T19:31:19.911Z,10.70
2018-03-14T19:33:47.513Z,10.70
2018-03-14T19:36:15.132Z,10.70
2018-03-14T19:38:42.696Z,10.70
2018-03-14T19:41:10.293Z,10.70
2018-03-14T19:43:38.442Z,10.70
2018-03-14T19:46:07.960Z,10.80
2018-03-14T19:48:35.595Z,10.80
2018-03-14T19:51:03.237Z,10.80
2018-03-14T19:53:30.871Z,10.90
2018-03-14T19:55:59.321Z,10.90
2018-03-14T19:58:28.227Z,10.90
2018-03-14T20:00:56.309Z,11.00
2018-03-14T20:03:24.648Z,11.00
2018-03-14T20:05:52.647Z,11.00
2018-03-14T20:08:20.254Z,11.00
2018-03-14T20:10:48.863Z,11.00
2018-03-14T20:13:17.003Z,11.00
2018-03-14T20:15:44.706Z,11.00
2018-03-14T20:18:13.655Z,11.00
2018-03-14T20:20:42.539Z,11.00
2018-03-14T20:23:12.494Z,11.00
2018-03-14T20:25:40.971Z,11.00
2018-03-14T20:28:08.597Z,11.10
2018-03-14T20:30:36.985Z,11.10
2018-03-14T20:33:05.335Z,11.10
2018-03-14T20:35:32.953Z,11.10
2018-03-14T20:38:02.340Z,11.20
2018-03-14T20:40:31.439Z,11.10
2018-03-14T20:42:59.150Z,11.20
2018-03-14T20:45:26.738Z,11.10
2018-03-14T20:47:55.221Z,11.10
2018-03-14T20:50:23.289Z,11.20
2018-03-14T20:52:51.815Z,11.10
2018-03-14T20:55:20.166Z,11.10
2018-03-14T20:57:49.904Z,11.10
2018-03-14T21:00:17.565Z,11.10
2018-03-14T21:02:45.271Z,11.10
2018-03-14T21:05:12.894Z,11.00
2018-03-14T21:07:41.484Z,11.00
2018-03-14T21:10:09.901Z,11.00
2018-03-14T21:12:37.530Z,11.00
2018-03-14T21:15:06.182Z,10.90
2018-03-14T21:17:33.882Z,10.90
2018-03-14T21:20:01.587Z,10.90
2018-03-14T21:22:30.827Z,11.00
2018-03-14T21:25:00.204Z,11.00
2018-03-14T21:27:28.685Z,11.00
2018-03-14T21:29:57.067Z,10.90
2018-03-14T21:32:26.302Z,10.80
2018-03-14T21:34:54.879Z,10.70
2018-03-14T21:37:24.579Z,10.50
2018-03-14T21:39:53.075Z,10.50
2018-03-14T21:42:20.764Z,10.60
2018-03-14T21:44:48.386Z,10.50
2018-03-14T21:47:15.974Z,10.50
2018-03-14T21:49:44.428Z,10.40
2018-03-14T21:52:12.106Z,10.30
2018-03-14T21:54:40.582Z,10.30
2018-03-14T21:57:18.107Z,10.30
2018-03-14T21:59:46.838Z,10.30
2018-03-14T22:02:16.171Z,10.20
2018-03-14T22:04:44.884Z,10.20
2018-03-14T22:07:13.649Z,10.20
2018-03-14T22:09:41.331Z,10.20
2018-03-14T22:12:09.626Z,10.20
2018-03-14T22:14:38.013Z,10.00
2018-03-14T22:17:05.946Z,10.00
2018-03-14T22:19:34.659Z,10.00
2018-03-14T22:22:02.810Z,9.90
2018-03-14T22:24:31.370Z,9.80
2018-03-14T22:26:59.719Z,9.70
2018-03-14T22:29:28.095Z,9.70
2018-03-14T22:31:56.079Z,9.60
2018-03-14T22:34:23.848Z,9.50
2018-03-14T22:36:52.227Z,9.50
2018-03-14T22:39:20.860Z,9.40
2018-03-14T22:41:49.226Z,9.30
2018-03-14T22:44:17.382Z,9.30
2018-03-14T22:46:45.751Z,9.20
2018-03-14T22:49:13.352Z,9.20
2018-03-14T22:51:41.255Z,9.20
2018-03-14T22:54:08.952Z,9.10
2018-03-14T22:56:36.591Z,9.00
2018-03-14T22:59:04.347Z,9.00
2018-03-14T23:01:31.964Z,8.90
2018-03-14T23:04:00.341Z,8.80
2018-03-14T23:06:28.722Z,8.80
2018-03-14T23:08:56.864Z,8.80
2018-03-14T23:11:25.068Z,8.80
2018-03-14T23:13:52.859Z,8.80
2018-03-14T23:16:20.470Z,8.70
2018-03-14T23:18:48.439Z,8.70
2018-03-14T23:21:16.002Z,8.70
2018-03-14T23:23:43.887Z,8.70
2018-03-14T23:26:11.499Z,8.70
2018-03-14T23:28:39.091Z,8.70
2018-03-14T23:31:06.687Z,8.60
2018-03-14T23:33:34.278Z,8.60
2018-03-14T23:36:02.082Z,8.60
2018-03-14T23:38:30.272Z,8.60
2018-03-14T23:40:58.857Z,8.60
2018-03-14T23:43:27.397Z,8.60
2018-03-14T23:45:55.033Z,8.50
2018-03-14T23:48:23.992Z,8.60
2018-03-14T23:50:52.681Z,8.50
2018-03-14T23:53:20.715Z,8.60
2018-03-14T23:55:48.335Z,8.60
2018-03-14T23:58:15.939Z,8.60
